sensor_id;sensor_type;location;lat;lon;timestamp;P1;durP1;ratioP1;P2;durP2;ratioP2
26060;SDS011;36331;51.378;0.018;2022-12-07T00:01:55;17.75;;;6.95;;
26060;SDS011;36331;51.378;0.018;2022-12-07T00:04:24;13.40;;;6.78;;
26060;SDS011;36331;51.378;0.018;2022-12-07T00:06:53;17.27;;;7.30;;
26060;SDS011;36331;51.378;0.018;2022-12-07T00:09:25;12.07;;;6.45;;
26060;SDS011;36331;51.378;0.018;2022-12-07T00:11:54;12.73;;;6.27;;
26060;SDS011;36331;51.378;0.018;2022-12-07T00:14:29;15.57;;;7.00;;
26060;SDS011;36331;51.378;0.018;2022-12-07T00:16:58;11.50;;;6.70;;
26060;SDS011;36331;51.378;0.018;2022-12-07T00:19:28;15.27;;;7.25;;
26060;SDS011;36331;51.378;0.018;2022-12-07T00:21:57;11.20;;;5.65;;
26060;SDS011;36331;51.378;0.018;2022-12-07T00:24:28;14.88;;;5.70;;
26060;SDS011;36331;51.378;0.018;2022-12-07T00:26:58;16.88;;;7.32;;
26060;SDS011;36331;51.378;0.018;2022-12-07T00:29:27;16.73;;;6.38;;
26060;SDS011;36331;51.378;0.018;2022-12-07T00:31:56;15.57;;;7.30;;
26060;SDS011;36331;51.378;0.018;2022-12-07T00:34:26;13.73;;;6.72;;
26060;SDS011;36331;51.378;0.018;2022-12-07T00:36:55;12.60;;;5.85;;
26060;SDS011;36331;51.378;0.018;2022-12-07T00:39:25;14.32;;;6.13;;
26060;SDS011;36331;51.378;0.018;2022-12-07T00:41:55;12.35;;;6.30;;
26060;SDS011;36331;51.378;0.018;2022-12-07T00:44:25;12.48;;;6.68;;
26060;SDS011;36331;51.378;0.018;2022-12-07T00:46:54;21.23;;;7.45;;
26060;SDS011;36331;51.378;0.018;2022-12-07T00:49:23;10.55;;;5.68;;
26060;SDS011;36331;51.378;0.018;2022-12-07T00:51:53;18.73;;;6.30;;
26060;SDS011;36331;51.378;0.018;2022-12-07T00:54:22;15.10;;;6.43;;
26060;SDS011;36331;51.378;0.018;2022-12-07T00:56:51;10.27;;;5.32;;
26060;SDS011;36331;51.378;0.018;2022-12-07T00:59:22;17.42;;;6.78;;
26060;SDS011;36331;51.378;0.018;2022-12-07T01:01:52;11.77;;;5.50;;
26060;SDS011;36331;51.378;0.018;2022-12-07T01:04:21;13.65;;;4.32;;
26060;SDS011;36331;51.378;0.018;2022-12-07T01:06:51;10.27;;;5.80;;
26060;SDS011;36331;51.378;0.018;2022-12-07T01:09:20;11.40;;;5.43;;
26060;SDS011;36331;51.378;0.018;2022-12-07T01:11:50;10.90;;;5.90;;
26060;SDS011;36331;51.378;0.018;2022-12-07T01:14:22;10.60;;;5.43;;
26060;SDS011;36331;51.378;0.018;2022-12-07T01:16:51;14.65;;;6.38;;
26060;SDS011;36331;51.378;0.018;2022-12-07T01:19:21;13.95;;;6.68;;
26060;SDS011;36331;51.378;0.018;2022-12-07T01:21:52;21.45;;;6.38;;
26060;SDS011;36331;51.378;0.018;2022-12-07T01:24:24;12.30;;;5.68;;
26060;SDS011;36331;51.378;0.018;2022-12-07T01:26:54;13.93;;;6.05;;
26060;SDS011;36331;51.378;0.018;2022-12-07T01:29:32;12.88;;;6.97;;
26060;SDS011;36331;51.378;0.018;2022-12-07T01:32:01;16.27;;;6.20;;
26060;SDS011;36331;51.378;0.018;2022-12-07T01:34:30;12.02;;;5.85;;
26060;SDS011;36331;51.378;0.018;2022-12-07T01:37:00;17.05;;;6.50;;
26060;SDS011;36331;51.378;0.018;2022-12-07T01:39:29;8.07;;;4.97;;
26060;SDS011;36331;51.378;0.018;2022-12-07T01:41:58;13.43;;;5.45;;
26060;SDS011;36331;51.378;0.018;2022-12-07T01:44:27;11.40;;;5.68;;
26060;SDS011;36331;51.378;0.018;2022-12-07T01:47:00;11.75;;;5.32;;
26060;SDS011;36331;51.378;0.018;2022-12-07T01:49:30;15.77;;;6.60;;
26060;SDS011;36331;51.378;0.018;2022-12-07T01:52:02;10.30;;;5.43;;
26060;SDS011;36331;51.378;0.018;2022-12-07T01:54:33;11.98;;;5.13;;
26060;SDS011;36331;51.378;0.018;2022-12-07T01:57:03;11.82;;;5.97;;
26060;SDS011;36331;51.378;0.018;2022-12-07T01:59:33;11.52;;;6.03;;
26060;SDS011;36331;51.378;0.018;2022-12-07T02:02:04;15.07;;;6.50;;
26060;SDS011;36331;51.378;0.018;2022-12-07T02:04:36;13.60;;;6.10;;
26060;SDS011;36331;51.378;0.018;2022-12-07T02:07:05;9.60;;;5.70;;
26060;SDS011;36331;51.378;0.018;2022-12-07T02:09:36;16.23;;;6.25;;
26060;SDS011;36331;51.378;0.018;2022-12-07T02:12:05;11.35;;;6.78;;
26060;SDS011;36331;51.378;0.018;2022-12-07T02:14:34;15.30;;;6.57;;
26060;SDS011;36331;51.378;0.018;2022-12-07T02:17:07;17.98;;;6.07;;
26060;SDS011;36331;51.378;0.018;2022-12-07T02:22:29;10.77;;;5.80;;
26060;SDS011;36331;51.378;0.018;2022-12-07T02:25:03;14.02;;;6.35;;
26060;SDS011;36331;51.378;0.018;2022-12-07T02:27:38;14.15;;;7.00;;
26060;SDS011;36331;51.378;0.018;2022-12-07T02:30:10;14.10;;;6.13;;
26060;SDS011;36331;51.378;0.018;2022-12-07T02:32:42;14.55;;;6.80;;
26060;SDS011;36331;51.378;0.018;2022-12-07T02:35:14;15.18;;;8.32;;
26060;SDS011;36331;51.378;0.018;2022-12-07T02:37:52;12.02;;;6.82;;
26060;SDS011;36331;51.378;0.018;2022-12-07T02:40:23;12.80;;;6.97;;
26060;SDS011;36331;51.378;0.018;2022-12-07T02:42:55;11.43;;;6.70;;
26060;SDS011;36331;51.378;0.018;2022-12-07T02:45:27;17.23;;;7.72;;
26060;SDS011;36331;51.378;0.018;2022-12-07T02:47:58;10.90;;;6.63;;
26060;SDS011;36331;51.378;0.018;2022-12-07T02:50:29;18.70;;;8.80;;
26060;SDS011;36331;51.378;0.018;2022-12-07T02:52:58;25.58;;;7.20;;
26060;SDS011;36331;51.378;0.018;2022-12-07T02:55:28;17.95;;;7.80;;
26060;SDS011;36331;51.378;0.018;2022-12-07T02:58:03;14.20;;;7.40;;
26060;SDS011;36331;51.378;0.018;2022-12-07T03:00:38;21.05;;;8.25;;
26060;SDS011;36331;51.378;0.018;2022-12-07T03:03:10;13.15;;;6.72;;
26060;SDS011;36331;51.378;0.018;2022-12-07T03:05:45;15.15;;;7.13;;
26060;SDS011;36331;51.378;0.018;2022-12-07T03:08:20;14.80;;;7.65;;
26060;SDS011;36331;51.378;0.018;2022-12-07T03:10:52;21.88;;;9.45;;
26060;SDS011;36331;51.378;0.018;2022-12-07T03:13:23;14.13;;;9.23;;
26060;SDS011;36331;51.378;0.018;2022-12-07T03:18:24;17.95;;;6.85;;
26060;SDS011;36331;51.378;0.018;2022-12-07T03:20:55;13.50;;;7.00;;
26060;SDS011;36331;51.378;0.018;2022-12-07T03:23:25;12.43;;;6.57;;
26060;SDS011;36331;51.378;0.018;2022-12-07T03:25:56;16.20;;;6.70;;
26060;SDS011;36331;51.378;0.018;2022-12-07T03:28:28;14.00;;;6.53;;
26060;SDS011;36331;51.378;0.018;2022-12-07T03:31:01;10.65;;;5.80;;
26060;SDS011;36331;51.378;0.018;2022-12-07T03:33:36;12.57;;;6.57;;
26060;SDS011;36331;51.378;0.018;2022-12-07T03:36:10;11.63;;;6.20;;
26060;SDS011;36331;51.378;0.018;2022-12-07T03:38:42;15.25;;;6.88;;
26060;SDS011;36331;51.378;0.018;2022-12-07T03:41:14;11.98;;;7.15;;
26060;SDS011;36331;51.378;0.018;2022-12-07T03:43:45;17.95;;;7.38;;
26060;SDS011;36331;51.378;0.018;2022-12-07T03:46:17;13.60;;;5.72;;
26060;SDS011;36331;51.378;0.018;2022-12-07T03:48:49;11.73;;;6.53;;
26060;SDS011;36331;51.378;0.018;2022-12-07T03:51:23;11.48;;;6.72;;
26060;SDS011;36331;51.378;0.018;2022-12-07T03:53:54;17.77;;;8.43;;
26060;SDS011;36331;51.378;0.018;2022-12-07T03:56:27;10.57;;;6.85;;
26060;SDS011;36331;51.378;0.018;2022-12-07T03:58:57;12.13;;;7.15;;
26060;SDS011;36331;51.378;0.018;2022-12-07T04:01:27;9.90;;;6.30;;
26060;SDS011;36331;51.378;0.018;2022-12-07T04:03:57;11.85;;;6.47;;
26060;SDS011;36331;51.378;0.018;2022-12-07T04:06:26;10.55;;;6.85;;
26060;SDS011;36331;51.378;0.018;2022-12-07T04:08:56;14.63;;;6.30;;
26060;SDS011;36331;51.378;0.018;2022-12-07T04:11:25;13.95;;;7.47;;
26060;SDS011;36331;51.378;0.018;2022-12-07T04:13:54;13.55;;;6.43;;
26060;SDS011;36331;51.378;0.018;2022-12-07T04:16:40;14.57;;;7.28;;
26060;SDS011;36331;51.378;0.018;2022-12-07T04:19:12;13.52;;;5.40;;
26060;SDS011;36331;51.378;0.018;2022-12-07T04:21:41;13.15;;;6.57;;
26060;SDS011;36331;51.378;0.018;2022-12-07T04:24:11;11.18;;;5.50;;
26060;SDS011;36331;51.378;0.018;2022-12-07T04:26:40;18.75;;;7.43;;
26060;SDS011;36331;51.378;0.018;2022-12-07T04:29:10;14.43;;;6.63;;
26060;SDS011;36331;51.378;0.018;2022-12-07T04:31:39;14.48;;;7.05;;
26060;SDS011;36331;51.378;0.018;2022-12-07T04:34:12;11.10;;;6.07;;
26060;SDS011;36331;51.378;0.018;2022-12-07T04:36:41;10.05;;;5.63;;
26060;SDS011;36331;51.378;0.018;2022-12-07T04:39:13;10.73;;;6.50;;
26060;SDS011;36331;51.378;0.018;2022-12-07T04:41:45;13.13;;;6.10;;
26060;SDS011;36331;51.378;0.018;2022-12-07T04:44:15;11.02;;;5.32;;
26060;SDS011;36331;51.378;0.018;2022-12-07T04:46:44;7.57;;;5.82;;
26060;SDS011;36331;51.378;0.018;2022-12-07T04:49:15;13.40;;;6.32;;
26060;SDS011;36331;51.378;0.018;2022-12-07T04:51:44;10.52;;;5.68;;
26060;SDS011;36331;51.378;0.018;2022-12-07T04:54:14;10.27;;;5.65;;
26060;SDS011;36331;51.378;0.018;2022-12-07T04:56:45;9.52;;;5.90;;
26060;SDS011;36331;51.378;0.018;2022-12-07T04:59:15;14.27;;;6.25;;
26060;SDS011;36331;51.378;0.018;2022-12-07T05:01:45;19.35;;;6.80;;
26060;SDS011;36331;51.378;0.018;2022-12-07T05:04:17;11.93;;;6.30;;
26060;SDS011;36331;51.378;0.018;2022-12-07T05:06:47;10.30;;;5.68;;
26060;SDS011;36331;51.378;0.018;2022-12-07T05:09:16;11.70;;;6.57;;
26060;SDS011;36331;51.378;0.018;2022-12-07T05:11:45;12.85;;;6.03;;
26060;SDS011;36331;51.378;0.018;2022-12-07T05:14:14;15.18;;;5.75;;
26060;SDS011;36331;51.378;0.018;2022-12-07T05:16:44;11.13;;;5.60;;
26060;SDS011;36331;51.378;0.018;2022-12-07T05:19:16;11.98;;;5.82;;
26060;SDS011;36331;51.378;0.018;2022-12-07T05:21:45;13.80;;;5.82;;
26060;SDS011;36331;51.378;0.018;2022-12-07T05:24:15;15.35;;;5.78;;
26060;SDS011;36331;51.378;0.018;2022-12-07T05:26:44;13.38;;;6.80;;
26060;SDS011;36331;51.378;0.018;2022-12-07T05:29:14;9.70;;;4.72;;
26060;SDS011;36331;51.378;0.018;2022-12-07T05:31:44;10.50;;;4.93;;
26060;SDS011;36331;51.378;0.018;2022-12-07T05:34:13;9.45;;;5.30;;
26060;SDS011;36331;51.378;0.018;2022-12-07T05:36:43;13.07;;;5.63;;
26060;SDS011;36331;51.378;0.018;2022-12-07T05:39:13;9.88;;;5.20;;
26060;SDS011;36331;51.378;0.018;2022-12-07T05:41:42;7.22;;;4.00;;
26060;SDS011;36331;51.378;0.018;2022-12-07T05:44:29;7.85;;;4.43;;
26060;SDS011;36331;51.378;0.018;2022-12-07T05:46:58;6.88;;;4.30;;
26060;SDS011;36331;51.378;0.018;2022-12-07T05:49:27;11.13;;;4.90;;
26060;SDS011;36331;51.378;0.018;2022-12-07T05:54:29;9.60;;;5.25;;
26060;SDS011;36331;51.378;0.018;2022-12-07T05:56:59;8.52;;;4.50;;
26060;SDS011;36331;51.378;0.018;2022-12-07T05:59:30;12.68;;;5.75;;
26060;SDS011;36331;51.378;0.018;2022-12-07T06:01:59;8.95;;;5.00;;
26060;SDS011;36331;51.378;0.018;2022-12-07T06:04:31;9.05;;;5.32;;
26060;SDS011;36331;51.378;0.018;2022-12-07T06:07:00;8.95;;;4.97;;
26060;SDS011;36331;51.378;0.018;2022-12-07T06:09:31;10.10;;;5.38;;
26060;SDS011;36331;51.378;0.018;2022-12-07T06:12:00;11.38;;;5.47;;
26060;SDS011;36331;51.378;0.018;2022-12-07T06:14:47;7.53;;;5.65;;
26060;SDS011;36331;51.378;0.018;2022-12-07T06:17:16;9.57;;;5.82;;
26060;SDS011;36331;51.378;0.018;2022-12-07T06:19:45;11.35;;;5.35;;
26060;SDS011;36331;51.378;0.018;2022-12-07T06:22:14;7.15;;;4.57;;
26060;SDS011;36331;51.378;0.018;2022-12-07T06:24:45;8.82;;;3.83;;
26060;SDS011;36331;51.378;0.018;2022-12-07T06:27:14;8.32;;;5.13;;
26060;SDS011;36331;51.378;0.018;2022-12-07T06:29:44;10.65;;;5.15;;
26060;SDS011;36331;51.378;0.018;2022-12-07T06:32:13;10.05;;;5.35;;
26060;SDS011;36331;51.378;0.018;2022-12-07T06:34:42;9.82;;;5.28;;
26060;SDS011;36331;51.378;0.018;2022-12-07T06:37:14;9.38;;;5.28;;
26060;SDS011;36331;51.378;0.018;2022-12-07T06:39:44;10.70;;;5.80;;
26060;SDS011;36331;51.378;0.018;2022-12-07T06:42:14;9.30;;;5.20;;
26060;SDS011;36331;51.378;0.018;2022-12-07T06:44:44;11.18;;;6.32;;
26060;SDS011;36331;51.378;0.018;2022-12-07T06:47:14;8.93;;;5.18;;
26060;SDS011;36331;51.378;0.018;2022-12-07T06:50:03;17.15;;;5.82;;
26060;SDS011;36331;51.378;0.018;2022-12-07T06:52:34;10.65;;;5.63;;
26060;SDS011;36331;51.378;0.018;2022-12-07T06:55:06;11.30;;;5.00;;
26060;SDS011;36331;51.378;0.018;2022-12-07T06:57:37;10.18;;;6.57;;
26060;SDS011;36331;51.378;0.018;2022-12-07T07:00:07;12.57;;;6.60;;
26060;SDS011;36331;51.378;0.018;2022-12-07T07:02:36;10.00;;;5.43;;
26060;SDS011;36331;51.378;0.018;2022-12-07T07:05:06;9.57;;;5.72;;
26060;SDS011;36331;51.378;0.018;2022-12-07T07:07:35;11.52;;;6.38;;
26060;SDS011;36331;51.378;0.018;2022-12-07T07:10:24;9.10;;;5.88;;
26060;SDS011;36331;51.378;0.018;2022-12-07T07:12:57;15.75;;;6.70;;
26060;SDS011;36331;51.378;0.018;2022-12-07T07:15:27;14.27;;;6.10;;
26060;SDS011;36331;51.378;0.018;2022-12-07T07:17:57;10.95;;;6.07;;
26060;SDS011;36331;51.378;0.018;2022-12-07T07:20:34;10.70;;;5.53;;
26060;SDS011;36331;51.378;0.018;2022-12-07T07:23:03;13.80;;;6.13;;
26060;SDS011;36331;51.378;0.018;2022-12-07T07:25:33;9.57;;;5.03;;
26060;SDS011;36331;51.378;0.018;2022-12-07T07:28:04;8.48;;;5.53;;
26060;SDS011;36331;51.378;0.018;2022-12-07T07:30:36;9.82;;;5.95;;
26060;SDS011;36331;51.378;0.018;2022-12-07T07:33:05;12.60;;;6.07;;
26060;SDS011;36331;51.378;0.018;2022-12-07T07:35:34;11.38;;;6.35;;
26060;SDS011;36331;51.378;0.018;2022-12-07T07:38:03;12.25;;;7.05;;
26060;SDS011;36331;51.378;0.018;2022-12-07T07:40:33;10.32;;;5.50;;
26060;SDS011;36331;51.378;0.018;2022-12-07T07:43:05;9.38;;;5.43;;
26060;SDS011;36331;51.378;0.018;2022-12-07T07:45:41;12.02;;;6.03;;
26060;SDS011;36331;51.378;0.018;2022-12-07T07:48:11;11.63;;;6.03;;
26060;SDS011;36331;51.378;0.018;2022-12-07T07:50:42;12.68;;;7.28;;
26060;SDS011;36331;51.378;0.018;2022-12-07T07:53:12;13.75;;;5.97;;
26060;SDS011;36331;51.378;0.018;2022-12-07T07:55:49;12.73;;;6.65;;
26060;SDS011;36331;51.378;0.018;2022-12-07T07:58:23;11.18;;;6.80;;
26060;SDS011;36331;51.378;0.018;2022-12-07T08:00:54;13.25;;;7.03;;
26060;SDS011;36331;51.378;0.018;2022-12-07T08:03:28;12.40;;;5.80;;
26060;SDS011;36331;51.378;0.018;2022-12-07T08:05:59;13.05;;;6.10;;
26060;SDS011;36331;51.378;0.018;2022-12-07T08:08:28;16.30;;;5.80;;
26060;SDS011;36331;51.378;0.018;2022-12-07T08:11:07;10.18;;;5.60;;
26060;SDS011;36331;51.378;0.018;2022-12-07T08:13:38;11.38;;;6.22;;
26060;SDS011;36331;51.378;0.018;2022-12-07T08:16:09;13.25;;;6.50;;
26060;SDS011;36331;51.378;0.018;2022-12-07T08:18:39;11.45;;;5.70;;
26060;SDS011;36331;51.378;0.018;2022-12-07T08:21:09;11.20;;;6.50;;
26060;SDS011;36331;51.378;0.018;2022-12-07T08:23:41;9.75;;;5.57;;
26060;SDS011;36331;51.378;0.018;2022-12-07T08:26:12;8.77;;;4.78;;
26060;SDS011;36331;51.378;0.018;2022-12-07T08:28:43;8.75;;;4.60;;
26060;SDS011;36331;51.378;0.018;2022-12-07T08:31:14;9.15;;;4.82;;
26060;SDS011;36331;51.378;0.018;2022-12-07T08:33:46;9.70;;;4.05;;
26060;SDS011;36331;51.378;0.018;2022-12-07T08:36:16;14.48;;;8.30;;
26060;SDS011;36331;51.378;0.018;2022-12-07T08:38:45;9.63;;;5.03;;
26060;SDS011;36331;51.378;0.018;2022-12-07T08:41:37;9.40;;;5.28;;
26060;SDS011;36331;51.378;0.018;2022-12-07T08:44:11;10.65;;;5.43;;
26060;SDS011;36331;51.378;0.018;2022-12-07T08:46:44;11.70;;;5.13;;
26060;SDS011;36331;51.378;0.018;2022-12-07T08:49:15;12.63;;;5.35;;
26060;SDS011;36331;51.378;0.018;2022-12-07T08:51:45;12.00;;;5.80;;
26060;SDS011;36331;51.378;0.018;2022-12-07T08:54:20;12.55;;;5.65;;
26060;SDS011;36331;51.378;0.018;2022-12-07T08:56:50;12.13;;;5.95;;
26060;SDS011;36331;51.378;0.018;2022-12-07T08:59:27;11.75;;;5.60;;
26060;SDS011;36331;51.378;0.018;2022-12-07T09:01:57;13.88;;;5.97;;
26060;SDS011;36331;51.378;0.018;2022-12-07T09:04:27;15.05;;;6.88;;
26060;SDS011;36331;51.378;0.018;2022-12-07T09:07:01;11.02;;;6.05;;
26060;SDS011;36331;51.378;0.018;2022-12-07T09:09:31;9.07;;;5.10;;
26060;SDS011;36331;51.378;0.018;2022-12-07T09:12:02;12.45;;;4.53;;
26060;SDS011;36331;51.378;0.018;2022-12-07T09:14:34;10.65;;;5.13;;
26060;SDS011;36331;51.378;0.018;2022-12-07T09:17:06;9.18;;;4.20;;
26060;SDS011;36331;51.378;0.018;2022-12-07T09:19:39;15.68;;;4.85;;
26060;SDS011;36331;51.378;0.018;2022-12-07T09:22:09;5.57;;;4.23;;
26060;SDS011;36331;51.378;0.018;2022-12-07T09:24:39;8.45;;;3.80;;
26060;SDS011;36331;51.378;0.018;2022-12-07T09:27:11;8.48;;;5.38;;
26060;SDS011;36331;51.378;0.018;2022-12-07T09:29:45;7.55;;;5.13;;
26060;SDS011;36331;51.378;0.018;2022-12-07T09:32:15;7.38;;;4.90;;
26060;SDS011;36331;51.378;0.018;2022-12-07T09:34:44;9.93;;;5.30;;
26060;SDS011;36331;51.378;0.018;2022-12-07T09:37:15;11.65;;;5.18;;
26060;SDS011;36331;51.378;0.018;2022-12-07T09:39:44;7.57;;;5.30;;
26060;SDS011;36331;51.378;0.018;2022-12-07T09:42:23;17.35;;;4.47;;
26060;SDS011;36331;51.378;0.018;2022-12-07T09:44:56;8.52;;;4.00;;
26060;SDS011;36331;51.378;0.018;2022-12-07T09:47:35;8.25;;;4.03;;
26060;SDS011;36331;51.378;0.018;2022-12-07T09:50:10;7.10;;;4.05;;
26060;SDS011;36331;51.378;0.018;2022-12-07T09:52:44;9.60;;;4.95;;
26060;SDS011;36331;51.378;0.018;2022-12-07T09:55:15;9.60;;;3.75;;
26060;SDS011;36331;51.378;0.018;2022-12-07T09:57:47;6.15;;;4.05;;
26060;SDS011;36331;51.378;0.018;2022-12-07T10:00:20;15.43;;;5.13;;
26060;SDS011;36331;51.378;0.018;2022-12-07T10:02:53;10.23;;;4.88;;
26060;SDS011;36331;51.378;0.018;2022-12-07T10:05:27;12.32;;;4.95;;
26060;SDS011;36331;51.378;0.018;2022-12-07T10:07:59;11.75;;;4.45;;
26060;SDS011;36331;51.378;0.018;2022-12-07T10:10:29;10.23;;;5.00;;
26060;SDS011;36331;51.378;0.018;2022-12-07T10:13:05;10.55;;;5.00;;
26060;SDS011;36331;51.378;0.018;2022-12-07T10:15:46;13.48;;;4.63;;
26060;SDS011;36331;51.378;0.018;2022-12-07T10:19:03;11.98;;;5.55;;
26060;SDS011;36331;51.378;0.018;2022-12-07T10:21:28;12.85;;;5.32;;
26060;SDS011;36331;51.378;0.018;2022-12-07T10:24:12;8.60;;;5.00;;
26060;SDS011;36331;51.378;0.018;2022-12-07T10:27:09;10.52;;;5.70;;
26060;SDS011;36331;51.378;0.018;2022-12-07T10:30:12;10.63;;;4.97;;
26060;SDS011;36331;51.378;0.018;2022-12-07T10:32:44;13.10;;;7.25;;
26060;SDS011;36331;51.378;0.018;2022-12-07T10:35:22;13.98;;;5.95;;
26060;SDS011;36331;51.378;0.018;2022-12-07T10:37:52;12.45;;;4.53;;
26060;SDS011;36331;51.378;0.018;2022-12-07T10:40:26;6.38;;;4.20;;
26060;SDS011;36331;51.378;0.018;2022-12-07T10:43:03;7.32;;;4.65;;
26060;SDS011;36331;51.378;0.018;2022-12-07T10:45:38;9.13;;;4.93;;
26060;SDS011;36331;51.378;0.018;2022-12-07T10:48:32;8.02;;;4.65;;
26060;SDS011;36331;51.378;0.018;2022-12-07T10:51:07;9.32;;;4.55;;
26060;SDS011;36331;51.378;0.018;2022-12-07T10:53:44;14.90;;;5.45;;
26060;SDS011;36331;51.378;0.018;2022-12-07T10:56:24;7.82;;;4.40;;
26060;SDS011;36331;51.378;0.018;2022-12-07T10:59:01;12.95;;;5.53;;
26060;SDS011;36331;51.378;0.018;2022-12-07T11:01:33;14.48;;;5.25;;
26060;SDS011;36331;51.378;0.018;2022-12-07T11:04:16;9.00;;;3.90;;
26060;SDS011;36331;51.378;0.018;2022-12-07T11:06:51;9.25;;;4.45;;
26060;SDS011;36331;51.378;0.018;2022-12-07T11:09:37;7.07;;;4.00;;
26060;SDS011;36331;51.378;0.018;2022-12-07T11:12:36;12.77;;;3.97;;
26060;SDS011;36331;51.378;0.018;2022-12-07T11:15:12;11.75;;;5.20;;
26060;SDS011;36331;51.378;0.018;2022-12-07T11:17:45;9.65;;;5.25;;
26060;SDS011;36331;51.378;0.018;2022-12-07T11:20:24;12.90;;;5.10;;
26060;SDS011;36331;51.378;0.018;2022-12-07T11:23:01;8.82;;;4.47;;
26060;SDS011;36331;51.378;0.018;2022-12-07T11:25:32;8.20;;;4.30;;
26060;SDS011;36331;51.378;0.018;2022-12-07T11:28:09;11.48;;;5.40;;
26060;SDS011;36331;51.378;0.018;2022-12-07T11:30:47;7.95;;;3.97;;
26060;SDS011;36331;51.378;0.018;2022-12-07T11:33:21;6.82;;;3.95;;
26060;SDS011;36331;51.378;0.018;2022-12-07T11:35:56;6.97;;;4.57;;
26060;SDS011;36331;51.378;0.018;2022-12-07T11:38:30;10.45;;;4.53;;
26060;SDS011;36331;51.378;0.018;2022-12-07T11:41:00;7.20;;;4.30;;
26060;SDS011;36331;51.378;0.018;2022-12-07T11:43:50;5.53;;;3.92;;
26060;SDS011;36331;51.378;0.018;2022-12-07T11:46:22;11.85;;;4.28;;
26060;SDS011;36331;51.378;0.018;2022-12-07T11:48:55;9.60;;;3.58;;
26060;SDS011;36331;51.378;0.018;2022-12-07T11:51:28;10.05;;;4.40;;
26060;SDS011;36331;51.378;0.018;2022-12-07T11:54:03;16.90;;;7.50;;
26060;SDS011;36331;51.378;0.018;2022-12-07T11:56:36;11.15;;;5.47;;
26060;SDS011;36331;51.378;0.018;2022-12-07T11:59:07;10.60;;;5.20;;
26060;SDS011;36331;51.378;0.018;2022-12-07T12:01:44;8.13;;;5.25;;
26060;SDS011;36331;51.378;0.018;2022-12-07T12:04:22;6.05;;;3.70;;
26060;SDS011;36331;51.378;0.018;2022-12-07T12:06:54;7.78;;;4.60;;
26060;SDS011;36331;51.378;0.018;2022-12-07T12:09:25;12.70;;;7.27;;
26060;SDS011;36331;51.378;0.018;2022-12-07T12:12:07;6.78;;;3.80;;
26060;SDS011;36331;51.378;0.018;2022-12-07T12:15:04;9.57;;;4.43;;
26060;SDS011;36331;51.378;0.018;2022-12-07T12:17:41;8.40;;;4.70;;
26060;SDS011;36331;51.378;0.018;2022-12-07T12:20:19;8.48;;;4.63;;
26060;SDS011;36331;51.378;0.018;2022-12-07T12:22:52;8.50;;;4.22;;
26060;SDS011;36331;51.378;0.018;2022-12-07T12:25:23;8.75;;;4.10;;
26060;SDS011;36331;51.378;0.018;2022-12-07T12:27:57;8.38;;;5.13;;
26060;SDS011;36331;51.378;0.018;2022-12-07T12:30:32;6.28;;;4.30;;
26060;SDS011;36331;51.378;0.018;2022-12-07T12:33:06;8.00;;;4.45;;
26060;SDS011;36331;51.378;0.018;2022-12-07T12:35:41;9.45;;;4.38;;
26060;SDS011;36331;51.378;0.018;2022-12-07T12:38:27;11.68;;;4.13;;
26060;SDS011;36331;51.378;0.018;2022-12-07T12:40:58;8.82;;;4.88;;
26060;SDS011;36331;51.378;0.018;2022-12-07T12:55:12;8.15;;;4.68;;
26060;SDS011;36331;51.378;0.018;2022-12-07T12:57:46;7.80;;;4.85;;
26060;SDS011;36331;51.378;0.018;2022-12-07T13:00:22;8.75;;;5.07;;
26060;SDS011;36331;51.378;0.018;2022-12-07T13:02:56;9.25;;;5.15;;
26060;SDS011;36331;51.378;0.018;2022-12-07T13:08:00;7.20;;;4.38;;
26060;SDS011;36331;51.378;0.018;2022-12-07T13:10:37;8.93;;;4.90;;
26060;SDS011;36331;51.378;0.018;2022-12-07T13:15:55;11.20;;;5.38;;
26060;SDS011;36331;51.378;0.018;2022-12-07T13:18:44;12.10;;;5.72;;
26060;SDS011;36331;51.378;0.018;2022-12-07T13:23:58;13.43;;;6.25;;
26060;SDS011;36331;51.378;0.018;2022-12-07T13:26:35;14.32;;;5.88;;
26060;SDS011;36331;51.378;0.018;2022-12-07T13:29:09;16.05;;;7.25;;
26060;SDS011;36331;51.378;0.018;2022-12-07T13:31:39;11.52;;;5.50;;
26060;SDS011;36331;51.378;0.018;2022-12-07T13:34:28;9.00;;;5.15;;
26060;SDS011;36331;51.378;0.018;2022-12-07T13:36:57;10.23;;;4.47;;
26060;SDS011;36331;51.378;0.018;2022-12-07T13:39:28;9.93;;;6.60;;
26060;SDS011;36331;51.378;0.018;2022-12-07T13:42:11;8.75;;;5.03;;
26060;SDS011;36331;51.378;0.018;2022-12-07T13:44:44;9.30;;;4.68;;
26060;SDS011;36331;51.378;0.018;2022-12-07T13:47:15;10.15;;;5.22;;
26060;SDS011;36331;51.378;0.018;2022-12-07T13:49:46;10.02;;;5.20;;
26060;SDS011;36331;51.378;0.018;2022-12-07T13:52:20;8.70;;;5.22;;
26060;SDS011;36331;51.378;0.018;2022-12-07T13:54:55;11.18;;;5.95;;
26060;SDS011;36331;51.378;0.018;2022-12-07T13:57:29;10.68;;;6.35;;
26060;SDS011;36331;51.378;0.018;2022-12-07T14:00:06;13.75;;;5.55;;
26060;SDS011;36331;51.378;0.018;2022-12-07T14:02:54;14.20;;;5.45;;
26060;SDS011;36331;51.378;0.018;2022-12-07T14:05:25;11.77;;;5.18;;
26060;SDS011;36331;51.378;0.018;2022-12-07T14:07:56;8.15;;;4.18;;
26060;SDS011;36331;51.378;0.018;2022-12-07T14:10:28;13.45;;;4.68;;
26060;SDS011;36331;51.378;0.018;2022-12-07T14:12:59;6.30;;;3.92;;
26060;SDS011;36331;51.378;0.018;2022-12-07T14:15:29;9.70;;;4.82;;
26060;SDS011;36331;51.378;0.018;2022-12-07T14:18:00;9.88;;;5.13;;
26060;SDS011;36331;51.378;0.018;2022-12-07T14:20:34;6.32;;;4.30;;
26060;SDS011;36331;51.378;0.018;2022-12-07T14:23:05;8.25;;;4.32;;
26060;SDS011;36331;51.378;0.018;2022-12-07T14:25:46;12.13;;;5.05;;
26060;SDS011;36331;51.378;0.018;2022-12-07T14:28:26;6.82;;;4.85;;
26060;SDS011;36331;51.378;0.018;2022-12-07T14:30:56;8.60;;;3.72;;
26060;SDS011;36331;51.378;0.018;2022-12-07T14:33:25;10.20;;;3.83;;
26060;SDS011;36331;51.378;0.018;2022-12-07T14:35:55;7.28;;;3.83;;
26060;SDS011;36331;51.378;0.018;2022-12-07T14:38:29;7.35;;;3.17;;
26060;SDS011;36331;51.378;0.018;2022-12-07T14:40:58;6.97;;;3.42;;
26060;SDS011;36331;51.378;0.018;2022-12-07T14:43:44;7.88;;;4.63;;
26060;SDS011;36331;51.378;0.018;2022-12-07T14:46:33;8.85;;;4.03;;
26060;SDS011;36331;51.378;0.018;2022-12-07T14:49:02;7.05;;;4.00;;
26060;SDS011;36331;51.378;0.018;2022-12-07T14:51:52;6.28;;;3.20;;
26060;SDS011;36331;51.378;0.018;2022-12-07T14:54:41;8.15;;;3.47;;
26060;SDS011;36331;51.378;0.018;2022-12-07T14:57:11;9.30;;;4.85;;
26060;SDS011;36331;51.378;0.018;2022-12-07T14:59:41;14.90;;;6.47;;
26060;SDS011;36331;51.378;0.018;2022-12-07T15:02:12;14.30;;;5.82;;
26060;SDS011;36331;51.378;0.018;2022-12-07T15:04:41;15.85;;;5.72;;
26060;SDS011;36331;51.378;0.018;2022-12-07T15:07:12;16.30;;;8.20;;
26060;SDS011;36331;51.378;0.018;2022-12-07T15:09:44;12.50;;;5.32;;
26060;SDS011;36331;51.378;0.018;2022-12-07T15:12:13;14.52;;;5.28;;
26060;SDS011;36331;51.378;0.018;2022-12-07T15:14:45;7.72;;;4.68;;
26060;SDS011;36331;51.378;0.018;2022-12-07T15:17:14;9.38;;;5.60;;
26060;SDS011;36331;51.378;0.018;2022-12-07T15:19:57;9.25;;;4.85;;
26060;SDS011;36331;51.378;0.018;2022-12-07T15:22:27;19.83;;;9.07;;
26060;SDS011;36331;51.378;0.018;2022-12-07T15:25:04;13.02;;;5.53;;
26060;SDS011;36331;51.378;0.018;2022-12-07T15:27:33;12.07;;;5.00;;
26060;SDS011;36331;51.378;0.018;2022-12-07T15:30:05;14.05;;;5.00;;
26060;SDS011;36331;51.378;0.018;2022-12-07T15:32:34;14.55;;;7.18;;
26060;SDS011;36331;51.378;0.018;2022-12-07T15:35:03;13.15;;;5.28;;
26060;SDS011;36331;51.378;0.018;2022-12-07T15:37:33;8.70;;;4.80;;
26060;SDS011;36331;51.378;0.018;2022-12-07T15:40:02;7.47;;;4.18;;